createdAt,value
2023-04-18T00:03:41.351Z,10.03
2023-04-18T00:07:44.117Z,11.87
2023-04-18T00:11:50.287Z,12.33
2023-04-18T00:15:54.182Z,11.20
2023-04-18T00:19:58.242Z,11.70
2023-04-18T00:24:00.969Z,10.83
2023-04-18T00:28:05.214Z,11.20
2023-04-18T00:32:09.679Z,11.00
2023-04-18T00:36:12.386Z,11.80
2023-04-18T00:40:17.909Z,12.00
2023-04-18T00:44:22.102Z,11.83
2023-04-18T00:48:25.420Z,10.73
2023-04-18T00:52:30.514Z,11.53
2023-04-18T00:56:33.581Z,11.43
2023-04-18T01:00:37.849Z,11.50
2023-04-18T01:04:41.493Z,12.00
2023-04-18T01:08:46.013Z,10.73
2023-04-18T01:12:48.742Z,11.17
2023-04-18T01:16:53.207Z,11.00
2023-04-18T01:20:57.021Z,11.33
2023-04-18T01:25:01.168Z,12.13
2023-04-18T01:29:03.932Z,11.13
2023-04-18T01:33:07.296Z,12.13
2023-04-18T01:37:10.035Z,11.77
2023-04-18T01:41:14.220Z,12.37
2023-04-18T01:45:20.245Z,13.13
2023-04-18T01:49:22.968Z,12.07
2023-04-18T01:53:25.685Z,13.40
2023-04-18T01:57:29.883Z,12.60
2023-04-18T02:01:32.576Z,12.00
2023-04-18T02:05:37.419Z,12.53
2023-04-18T02:09:42.295Z,13.10
2023-04-18T02:13:48.670Z,12.80
2023-04-18T02:17:51.492Z,12.37
2023-04-18T02:21:54.262Z,12.40
2023-04-18T02:25:56.973Z,12.03
2023-04-18T02:30:01.117Z,13.50
2023-04-18T02:34:03.895Z,12.97
2023-04-18T02:38:06.600Z,12.20
2023-04-18T02:42:09.301Z,12.30
2023-04-18T02:46:13.478Z,11.87
2023-04-18T02:50:16.240Z,14.40
2023-04-18T02:54:19.239Z,12.73
2023-04-18T02:58:34.779Z,12.70
2023-04-18T03:03:05.509Z,13.43
2023-04-18T03:07:16.122Z,14.57
2023-04-18T03:11:18.894Z,12.13
2023-04-18T03:15:22.544Z,14.43
2023-04-18T03:19:26.709Z,12.03
2023-04-18T03:23:31.441Z,14.07
2023-04-18T03:27:37.300Z,12.80
2023-04-18T03:31:41.506Z,12.97
2023-04-18T03:35:45.777Z,12.83
2023-04-18T03:39:48.867Z,12.53
2023-04-18T03:43:51.690Z,12.73
2023-04-18T03:47:54.569Z,13.47
2023-04-18T03:51:59.857Z,12.77
2023-04-18T03:56:02.804Z,12.93
2023-04-18T04:00:26.816Z,13.50
2023-04-18T04:04:41.209Z,11.97
2023-04-18T04:08:47.503Z,11.27
2023-04-18T04:12:55.320Z,12.03
2023-04-18T04:16:58.807Z,11.87
2023-04-18T04:21:01.802Z,11.40
2023-04-18T04:25:18.240Z,11.07
2023-04-18T04:29:23.765Z,10.40
2023-04-18T04:33:29.321Z,12.07
2023-04-18T04:37:36.364Z,10.33
2023-04-18T04:41:53.459Z,9.80
2023-04-18T04:45:58.616Z,9.63
2023-04-18T04:50:01.398Z,9.73
2023-04-18T04:54:04.282Z,8.17
2023-04-18T04:58:08.414Z,7.17
2023-04-18T05:02:33.107Z,8.00
2023-04-18T05:06:36.277Z,7.67
2023-04-18T05:10:40.929Z,7.43
2023-04-18T05:14:45.038Z,7.70
2023-04-18T05:18:47.918Z,7.20
2023-04-18T05:22:50.608Z,6.73
2023-04-18T05:26:53.679Z,8.43
2023-04-18T05:31:01.304Z,7.50
2023-04-18T05:35:04.534Z,7.20
2023-04-18T05:39:07.396Z,7.70
2023-04-18T05:43:10.082Z,7.60
2023-04-18T05:47:14.468Z,7.97
2023-04-18T05:51:17.212Z,7.67
2023-04-18T05:55:19.934Z,7.93
2023-04-18T05:59:22.690Z,8.33
2023-04-18T06:03:27.056Z,8.93
2023-04-18T06:07:30.076Z,8.57
2023-04-18T06:11:33.585Z,8.63
2023-04-18T06:15:36.426Z,8.67
2023-04-18T06:19:40.601Z,8.13
2023-04-18T06:23:43.445Z,8.07
2023-04-18T06:27:46.216Z,8.63
2023-04-18T06:31:50.377Z,8.27
2023-04-18T06:35:54.650Z,9.03
2023-04-18T06:39:57.571Z,9.50
2023-04-18T06:44:04.118Z,8.93
2023-04-18T06:48:09.104Z,8.27
2023-04-18T06:52:13.285Z,9.60
2023-04-18T06:56:16.067Z,8.87
2023-04-18T07:00:19.419Z,8.47
2023-04-18T07:04:22.372Z,9.30
2023-04-18T07:08:26.616Z,8.33
2023-04-18T07:12:29.362Z,8.73
2023-04-18T07:16:32.198Z,9.23
2023-04-18T07:20:35.081Z,9.67
2023-04-18T07:24:39.945Z,8.70
2023-04-18T07:28:42.868Z,8.63
2023-04-18T07:32:47.255Z,8.70
2023-04-18T07:36:50.316Z,9.20
2023-04-18T07:40:59.113Z,9.00
2023-04-18T07:45:02.078Z,9.00
2023-04-18T07:49:04.902Z,10.17
2023-04-18T07:53:08.185Z,9.17
2023-04-18T07:57:12.402Z,9.73
2023-04-18T08:01:18.203Z,10.23
2023-04-18T08:05:21.250Z,9.37
2023-04-18T08:09:24.004Z,10.03
2023-04-18T08:13:28.174Z,9.67
2023-04-18T08:17:31.056Z,9.83
2023-04-18T08:21:33.861Z,9.83
2023-04-18T08:25:37.149Z,9.67
2023-04-18T08:29:41.370Z,10.67
2023-04-18T08:33:44.144Z,10.00
2023-04-18T08:37:46.862Z,9.80
2023-04-18T08:41:59.438Z,12.20
2023-04-18T08:46:03.616Z,11.37
2023-04-18T08:50:07.659Z,10.67
2023-04-18T08:54:12.336Z,10.37
2023-04-18T08:58:22.235Z,10.70
2023-04-18T09:02:38.905Z,10.10
2023-04-18T09:06:52.871Z,9.73
2023-04-18T09:10:56.159Z,9.53
2023-04-18T09:15:12.300Z,10.00
2023-04-18T09:19:18.167Z,10.40
2023-04-18T09:23:26.001Z,9.30
2023-04-18T09:27:35.999Z,9.50
2023-04-18T09:32:00.999Z,9.27
2023-04-18T09:36:22.297Z,10.20
2023-04-18T09:40:25.130Z,9.60
2023-04-18T09:44:28.011Z,9.93
2023-04-18T09:48:30.813Z,9.80
2023-04-18T09:52:37.775Z,10.53
2023-04-18T09:56:43.808Z,9.87
2023-04-18T10:00:47.082Z,10.37
2023-04-18T10:04:51.450Z,10.53
2023-04-18T10:08:57.003Z,10.57
2023-04-18T10:13:02.040Z,10.93
2023-04-18T10:17:04.922Z,11.00
2023-04-18T10:21:10.134Z,11.07
2023-04-18T10:25:14.319Z,11.67
2023-04-18T10:29:18.813Z,11.97
2023-04-18T10:33:30.864Z,12.27
2023-04-18T10:37:35.004Z,12.30
2023-04-18T10:41:51.013Z,12.23
2023-04-18T10:46:20.446Z,11.23
2023-04-18T10:50:31.122Z,11.63
2023-04-18T10:54:39.717Z,12.10
2023-04-18T10:58:49.284Z,12.43
2023-04-18T11:02:55.902Z,11.93
2023-04-18T11:06:59.421Z,13.27
2023-04-18T11:11:04.080Z,13.20
2023-04-18T11:15:14.221Z,12.37
2023-04-18T11:19:21.315Z,12.23
2023-04-18T11:23:25.134Z,12.87
2023-04-18T11:27:27.869Z,12.00
2023-04-18T11:31:32.013Z,13.40
2023-04-18T11:35:38.560Z,12.13
2023-04-18T11:39:43.405Z,11.13
2023-04-18T11:43:47.676Z,12.27
2023-04-18T11:47:58.116Z,12.63
2023-04-18T11:52:01.382Z,12.63
2023-04-18T11:56:04.556Z,11.93
2023-04-18T12:00:09.082Z,12.20
2023-04-18T12:04:13.657Z,11.70
2023-04-18T12:08:20.563Z,11.23
2023-04-18T12:12:23.777Z,11.97
2023-04-18T12:16:28.207Z,11.33
2023-04-18T12:20:37.429Z,10.87
2023-04-18T12:24:40.267Z,11.47
2023-04-18T12:28:47.999Z,11.63
2023-04-18T12:32:52.583Z,11.30
2023-04-18T12:36:57.037Z,11.20
2023-04-18T12:40:59.750Z,11.23
2023-04-18T12:45:03.464Z,10.70
2023-04-18T12:49:06.363Z,9.97
2023-04-18T12:53:10.659Z,10.57
2023-04-18T12:57:13.450Z,10.07
2023-04-18T13:01:16.522Z,10.77
2023-04-18T13:05:21.315Z,10.13
2023-04-18T13:09:26.856Z,10.13
2023-04-18T13:13:32.913Z,9.27
2023-04-18T13:17:37.399Z,9.60
2023-04-18T13:21:40.178Z,9.67
2023-04-18T13:25:44.348Z,9.20
2023-04-18T13:29:47.106Z,8.47
2023-04-18T13:33:49.841Z,9.43
2023-04-18T13:37:52.632Z,8.47
2023-04-18T13:41:56.783Z,8.40
2023-04-18T13:46:00.660Z,7.33
2023-04-18T13:50:03.676Z,8.20
2023-04-18T13:54:06.585Z,8.70
2023-04-18T13:58:10.849Z,8.30
2023-04-18T14:02:13.959Z,7.20
2023-04-18T14:06:16.868Z,7.63
2023-04-18T14:10:20.046Z,8.07
2023-04-18T14:14:24.873Z,8.33
2023-04-18T14:18:28.488Z,8.20
2023-04-18T14:22:31.337Z,7.80
2023-04-18T14:26:34.082Z,8.40
2023-04-18T14:30:39.464Z,8.97
2023-04-18T14:34:42.783Z,8.73
2023-04-18T14:38:48.418Z,7.43
2023-04-18T14:42:51.503Z,8.50
2023-04-18T14:46:55.746Z,8.83
2023-04-18T14:50:58.794Z,8.27
2023-04-18T14:55:01.615Z,7.67
2023-04-18T14:59:04.432Z,8.13
2023-04-18T15:03:11.177Z,8.87
2023-04-18T15:07:15.057Z,8.43
2023-04-18T15:11:17.761Z,8.03
2023-04-18T15:15:20.818Z,8.20
2023-04-18T15:19:25.046Z,7.27
2023-04-18T15:23:28.074Z,7.93
2023-04-18T15:27:30.947Z,7.77
2023-04-18T15:31:34.078Z,7.67
2023-04-18T15:35:38.226Z,7.77
2023-04-18T15:39:40.970Z,6.57
2023-04-18T15:43:45.427Z,7.70
2023-04-18T15:47:48.381Z,7.00
2023-04-18T15:51:52.525Z,6.37
2023-04-18T15:55:55.434Z,7.57
2023-04-18T15:59:59.436Z,7.20
2023-04-18T16:04:02.476Z,7.20
2023-04-18T16:08:08.845Z,6.77
2023-04-18T16:12:11.595Z,7.03
2023-04-18T16:16:14.747Z,6.27
2023-04-18T16:20:17.996Z,6.90
2023-04-18T16:24:22.085Z,6.43
2023-04-18T16:28:24.896Z,7.27
2023-04-18T16:32:27.676Z,5.93
2023-04-18T16:36:30.832Z,6.77
2023-04-18T16:40:35.061Z,7.07
2023-04-18T16:44:39.321Z,7.17
2023-04-18T16:48:42.196Z,6.93
2023-04-18T16:52:44.975Z,6.90
2023-04-18T16:56:49.038Z,6.50
2023-04-18T17:00:52.595Z,7.00
2023-04-18T17:04:55.671Z,6.80
2023-04-18T17:08:58.917Z,6.77
2023-04-18T17:13:04.122Z,6.57
2023-04-18T17:17:07.201Z,6.77
2023-04-18T17:21:12.372Z,7.50
2023-04-18T17:25:15.107Z,7.87
2023-04-18T17:29:19.471Z,7.10
2023-04-18T17:33:22.273Z,7.43
2023-04-18T17:37:25.127Z,7.57
2023-04-18T17:41:27.933Z,7.20
2023-04-18T17:45:32.176Z,7.40
2023-04-18T17:49:36.052Z,7.37
2023-04-18T17:53:39.022Z,7.47
2023-04-18T17:57:41.815Z,8.17
2023-04-18T18:01:46.097Z,8.10
2023-04-18T18:05:50.698Z,8.57
2023-04-18T18:09:53.440Z,7.40
2023-04-18T18:13:57.362Z,9.80
2023-04-18T18:18:01.835Z,8.07
2023-04-18T18:22:04.654Z,7.77
2023-04-18T18:26:07.426Z,8.50
2023-04-18T18:30:10.753Z,8.23
2023-04-18T18:34:14.929Z,8.40
2023-04-18T18:38:17.777Z,8.97
2023-04-18T18:42:20.897Z,9.23
2023-04-18T18:46:23.658Z,8.57
2023-04-18T18:50:27.762Z,8.80
2023-04-18T18:54:30.591Z,8.23
2023-04-18T18:58:33.311Z,7.87
2023-04-18T19:02:36.138Z,8.77
2023-04-18T19:06:40.484Z,8.47
2023-04-18T19:10:43.200Z,8.23
2023-04-18T19:14:46.972Z,8.30
2023-04-18T19:18:50.620Z,8.93
2023-04-18T19:22:54.715Z,8.20
2023-04-18T19:26:57.425Z,8.57
2023-04-18T19:31:00.151Z,7.27
2023-04-18T19:35:02.928Z,9.03
2023-04-18T19:39:07.017Z,7.93
2023-04-18T19:43:09.905Z,7.37
2023-04-18T19:47:12.924Z,8.20
2023-04-18T19:51:15.718Z,8.33
2023-04-18T19:55:19.850Z,8.50
2023-04-18T19:59:22.509Z,8.93
2023-04-18T20:03:25.534Z,8.67
2023-04-18T20:07:28.327Z,8.73
2023-04-18T20:11:32.465Z,9.07
2023-04-18T20:15:35.203Z,8.73
2023-04-18T20:19:37.986Z,8.53
2023-04-18T20:23:42.057Z,8.90
2023-04-18T20:27:46.268Z,8.87
2023-04-18T20:31:48.977Z,8.40
2023-04-18T20:35:53.647Z,9.87
2023-04-18T20:39:56.600Z,9.63
2023-04-18T20:44:05.008Z,8.40
2023-04-18T20:48:08.335Z,8.57
2023-04-18T20:52:11.048Z,9.07
2023-04-18T20:56:13.740Z,9.03
2023-04-18T21:00:18.469Z,8.60
2023-04-18T21:04:21.921Z,8.73
2023-04-18T21:08:24.707Z,8.77
2023-04-18T21:12:28.328Z,8.87
2023-04-18T21:16:32.403Z,9.83
2023-04-18T21:20:36.508Z,8.63
2023-04-18T21:24:40.339Z,9.17
2023-04-18T21:28:57.132Z,8.30
2023-04-18T21:33:01.246Z,9.30
2023-04-18T21:37:03.987Z,9.17
2023-04-18T21:41:07.141Z,10.13
2023-04-18T21:45:11.808Z,9.73
2023-04-18T21:49:16.134Z,10.00
2023-04-18T21:53:18.784Z,10.90
2023-04-18T21:57:21.536Z,9.93
2023-04-18T22:01:24.223Z,9.57
2023-04-18T22:05:28.886Z,10.60
2023-04-18T22:09:33.844Z,10.97
2023-04-18T22:13:36.601Z,10.47
2023-04-18T22:17:41.750Z,10.07
2023-04-18T22:21:45.989Z,10.07
2023-04-18T22:25:49.187Z,10.87
2023-04-18T22:29:52.038Z,11.00
2023-04-18T22:33:54.781Z,11.50
2023-04-18T22:37:58.968Z,11.00
2023-04-18T22:42:02.629Z,11.97
2023-04-18T22:46:05.498Z,11.73
2023-04-18T22:50:09.621Z,11.43
2023-04-18T22:54:13.873Z,12.63
2023-04-18T22:58:17.044Z,11.77
2023-04-18T23:02:19.865Z,11.97
2023-04-18T23:06:23.072Z,11.83
2023-04-18T23:10:27.202Z,11.60
2023-04-18T23:14:30.161Z,12.17
2023-04-18T23:18:32.838Z,12.60
2023-04-18T23:22:35.583Z,12.00
2023-04-18T23:26:39.730Z,11.10
2023-04-18T23:30:42.482Z,11.90
2023-04-18T23:34:46.175Z,12.47
2023-04-18T23:38:48.920Z,10.97
2023-04-18T23:42:52.959Z,11.87
2023-04-18T23:46:55.760Z,10.90
2023-04-18T23:50:59.038Z,11.00
2023-04-18T23:55:02.169Z,10.63
2023-04-18T23:59:06.305Z,10.80
